Time;durP1;ratioP1;P1;durP2;ratioP2;P2;SDS_P1;SDS_P2;PMS_P1;PMS_P2;Temp;Humidity;BMP_temperature;BMP_pressure;BME280_temperature;BME280_humidity;BME280_pressure;Samples;Min_cycle;Max_cycle;Signal;HPM_P1;HPM_P2
2021/09/02 04:50:00;;;;;;;9.30;5.60;;;;;;;;;;6268873;22;20406;-82
2021/09/02 04:55:27;;;;;;;11.02;6.15;;;;;;;;;;6274455;22;20019;-83
2021/09/02 04:57:53;;;;;;;7.43;5.82;;;;;;;;;;6266700;23;19996;-79
2021/09/02 05:00:18;;;;;;;8.25;6.20;;;;;;;;;;6247117;23;20424;-79
2021/09/02 05:02:44;;;;;;;8.68;6.15;;;;;;;;;;6245765;23;20361;-79
2021/09/02 05:05:09;;;;;;;7.80;6.07;;;;;;;;;;6246649;23;20422;-79
2021/09/02 05:07:35;;;;;;;7.47;6.57;;;;;;;;;;6246086;23;19992;-79
2021/09/02 05:10:04;;;;;;;8.55;6.40;;;;;;;;;;6246878;23;20000;-79
2021/09/02 05:12:30;;;;;;;9.70;6.85;;;;;;;;;;6246314;23;20038;-79
2021/09/02 05:14:55;;;;;;;9.07;6.72;;;;;;;;;;6246757;23;20007;-79
2021/09/02 05:17:20;;;;;;;8.93;6.60;;;;;;;;;;6219961;23;20007;-79
2021/09/02 05:19:46;;;;;;;9.70;7.05;;;;;;;;;;6247190;23;20018;-79
2021/09/02 05:22:12;;;;;;;10.00;7.03;;;;;;;;;;6220300;23;20000;-79
2021/09/02 05:24:37;;;;;;;8.85;6.22;;;;;;;;;;6220373;23;20059;-79
2021/09/02 05:27:03;;;;;;;12.07;6.80;;;;;;;;;;6247769;23;20003;-81
2021/09/02 05:29:34;;;;;;;10.13;6.57;;;;;;;;;;6271246;22;19980;-82
2021/09/02 05:32:29;;;;;;;8.02;6.80;;;;;;;;;;6274368;23;20015;-83
2021/09/02 05:34:58;;;;;;;10.57;7.10;;;;;;;;;;6249867;23;20056;-83
2021/09/02 05:37:24;;;;;;;11.88;6.70;;;;;;;;;;6242212;23;20051;-82
2021/09/02 05:39:50;;;;;;;12.02;7.10;;;;;;;;;;6264356;23;19980;-83
2021/09/02 05:45:17;;;;;;;16.10;8.52;;;;;;;;;;6243670;23;20034;-83
2021/09/02 05:48:04;;;;;;;12.93;8.68;;;;;;;;;;6190456;23;20092;-83
2021/09/02 05:50:42;;;;;;;17.42;8.80;;;;;;;;;;6243492;23;20007;-83
2021/09/02 06:00:31;;;;;;;12.70;8.77;;;;;;;;;;6306669;22;20003;-84
2021/09/02 06:18:08;;;;;;;11.57;8.32;;;;;;;;;;6304238;22;20014;-83
2021/09/02 06:33:54;;;;;;;16.02;9.20;;;;;;;;;;6151845;23;20005;-84
2021/09/02 06:48:04;;;;;;;12.75;9.43;;;;;;;;;;6037563;23;20023;-84
2021/09/02 06:58:31;;;;;;;15.68;9.77;;;;;;;;;;5829644;24;20087;-83
2021/09/02 07:01:22;;;;;;;;;;;;;;;;;;5773093;24;20092;-84
2021/09/02 07:04:33;;;;;;;18.02;9.63;;;;;;;;;;5818893;24;19915;-83
2021/09/02 07:07:54;;;;;;;15.05;9.10;;;;;;;;;;5802119;24;20040;-84
2021/09/02 07:10:54;;;;;;;15.38;9.02;;;;;;;;;;5827908;24;20010;-84
2021/09/02 07:13:59;;;;;;;12.50;9.45;;;;;;;;;;5864961;24;20019;-83
2021/09/02 07:17:16;;;;;;;19.25;10.68;;;;;;;;;;5863440;24;20010;-84
2021/09/02 07:20:26;;;;;;;18.13;9.85;;;;;;;;;;5867567;24;20025;-83
2021/09/02 07:23:13;;;;;;;;;;;;;;;;;;5865836;24;20118;-84
2021/09/02 07:25:41;;;;;;;12.32;9.30;;;;;;;;;;5873783;24;19913;-83
2021/09/02 07:28:08;;;;;;;14.98;9.55;;;;;;;;;;5976491;24;20058;-83
2021/09/02 07:30:58;;;;;;;14.32;9.40;;;;;;;;;;5999039;23;20042;-83
2021/09/02 07:33:49;;;;;;;14.48;9.68;;;;;;;;;;6065786;23;20014;-83
2021/09/02 07:37:05;;;;;;;20.48;10.77;;;;;;;;;;6140387;23;20062;-83
2021/09/02 07:39:53;;;;;;;16.58;10.65;;;;;;;;;;6136589;23;20057;-82
2021/09/02 07:42:29;;;;;;;25.35;11.05;;;;;;;;;;6143667;23;19998;-83
2021/09/02 07:45:01;;;;;;;17.30;10.07;;;;;;;;;;6187662;23;20042;-83
2021/09/02 07:48:13;;;;;;;17.55;10.98;;;;;;;;;;6223859;23;20047;-83
2021/09/02 07:51:41;;;;;;;17.08;10.02;;;;;;;;;;6246978;23;20317;-83
2021/09/02 07:57:47;;;;;;;14.65;9.48;;;;;;;;;;6212630;23;20026;-83
2021/09/02 08:00:18;;;;;;;11.50;8.32;;;;;;;;;;6235628;23;20000;-82
2021/09/02 08:03:05;;;;;;;12.65;7.68;;;;;;;;;;6216019;23;20334;-82
2021/09/02 08:05:46;;;;;;;9.75;7.00;;;;;;;;;;6260050;23;19984;-83
2021/09/02 08:09:06;;;;;;;8.98;7.10;;;;;;;;;;6226287;23;20008;-83
2021/09/02 08:12:18;;;;;;;15.95;7.90;;;;;;;;;;6261581;23;20000;-84
2021/09/02 08:15:32;;;;;;;20.17;9.15;;;;;;;;;;6247487;23;20060;-83
2021/09/02 08:17:59;;;;;;;18.60;9.02;;;;;;;;;;6192817;23;20552;-83
2021/09/02 08:20:33;;;;;;;14.13;8.65;;;;;;;;;;6171194;23;20013;-84
2021/09/02 08:23:26;;;;;;;14.48;7.88;;;;;;;;;;6135325;23;20020;-83
2021/09/02 08:26:23;;;;;;;11.05;7.05;;;;;;;;;;6172512;23;20002;-82
2021/09/02 08:29:12;;;;;;;16.92;8.93;;;;;;;;;;6158186;23;20069;-83
2021/09/02 08:31:42;;;;;;;13.02;7.78;;;;;;;;;;6176463;23;20021;-84
2021/09/02 08:34:35;;;;;;;11.68;7.88;;;;;;;;;;6174108;23;20025;-83
2021/09/02 08:37:23;;;;;;;22.58;8.48;;;;;;;;;;6162601;23;20001;-84
2021/09/02 08:39:53;;;;;;;10.63;7.50;;;;;;;;;;6175449;23;20009;-83
2021/09/02 08:42:50;;;;;;;10.93;7.40;;;;;;;;;;6170647;23;20014;-83
2021/09/02 08:45:17;;;;;;;13.45;6.88;;;;;;;;;;6147139;23;20014;-82
2021/09/02 08:47:52;;;;;;;10.48;6.13;;;;;;;;;;6168358;23;20013;-83
2021/09/02 08:50:22;;;;;;;6.93;5.82;;;;;;;;;;6167612;23;20029;-83
2021/09/02 08:53:20;;;;;;;7.85;6.15;;;;;;;;;;6173859;23;20087;-84
2021/09/02 08:56:09;;;;;;;36.17;27.30;;;;;;;;;;6113385;23;20002;-83
2021/09/02 08:59:17;;;;;;;17.67;12.93;;;;;;;;;;6110164;23;20273;-83
2021/09/02 09:01:47;;;;;;;7.53;5.85;;;;;;;;;;6108981;23;20025;-81
2021/09/02 09:04:15;;;;;;;10.25;6.18;;;;;;;;;;6109133;23;20034;-82
2021/09/02 09:06:42;;;;;;;7.93;5.47;;;;;;;;;;6106415;23;20071;-82
2021/09/02 09:09:27;;;;;;;6.50;5.22;;;;;;;;;;6163249;23;20002;-83
2021/09/02 09:11:54;;;;;;;5.85;4.90;;;;;;;;;;6140381;23;20001;-82
2021/09/02 09:14:26;;;;;;;8.60;5.82;;;;;;;;;;6164331;23;20013;-83
2021/09/02 09:16:54;;;;;;;7.90;5.95;;;;;;;;;;6170363;23;20012;-82
2021/09/02 09:19:57;;;;;;;8.98;5.90;;;;;;;;;;6196035;23;20482;-83
2021/09/02 09:22:30;;;;;;;8.30;5.28;;;;;;;;;;6200799;23;20005;-83
2021/09/02 09:24:57;;;;;;;7.25;5.28;;;;;;;;;;6201747;23;20011;-82
2021/09/02 09:33:17;;;;;;;6.95;6.22;;;;;;;;;;6266625;23;20026;-82
2021/09/02 09:35:43;;;;;;;8.02;5.57;;;;;;;;;;6264360;23;20380;-82
2021/09/02 09:38:12;;;;;;;6.20;4.93;;;;;;;;;;6262924;23;20000;-82
2021/09/02 09:40:47;;;;;;;8.20;5.28;;;;;;;;;;6267907;23;20042;-83
2021/09/02 09:43:40;;;;;;;6.82;5.18;;;;;;;;;;6265284;23;19992;-82
2021/09/02 09:46:09;;;;;;;7.93;5.75;;;;;;;;;;6114072;23;20059;-81
2021/09/02 09:48:48;;;;;;;7.43;5.05;;;;;;;;;;6092985;23;20006;-82
2021/09/02 09:51:31;;;;;;;7.10;5.47;;;;;;;;;;6094025;23;20014;-83
2021/09/02 09:56:47;;;;;;;7.70;5.22;;;;;;;;;;6266845;23;20031;-82
2021/09/02 09:59:33;;;;;;;9.30;5.45;;;;;;;;;;6243800;23;20012;-84
2021/09/02 10:02:07;;;;;;;7.75;5.45;;;;;;;;;;6266392;23;20000;-83
2021/09/02 10:05:21;;;;;;;7.90;4.90;;;;;;;;;;6271084;23;20010;-83
2021/09/02 10:08:09;;;;;;;5.85;5.07;;;;;;;;;;6270014;23;20000;-83
2021/09/02 10:10:58;;;;;;;5.82;4.40;;;;;;;;;;6242169;23;20000;-83
2021/09/02 10:13:52;;;;;;;8.25;4.93;;;;;;;;;;6271544;23;20004;-83
2021/09/02 10:16:33;;;;;;;6.63;4.55;;;;;;;;;;6244686;23;20000;-82
2021/09/02 10:19:02;;;;;;;6.82;4.38;;;;;;;;;;6269089;23;20000;-84
2021/09/02 10:21:40;;;;;;;6.82;4.93;;;;;;;;;;6269203;22;19988;-82
2021/09/02 10:24:41;;;;;;;6.22;5.22;;;;;;;;;;6268979;23;20018;-82
2021/09/02 10:28:08;;;;;;;5.82;4.40;;;;;;;;;;6269084;23;20059;-82
2021/09/02 10:31:13;;;;;;;7.93;5.30;;;;;;;;;;6177142;23;20390;-82
2021/09/02 10:33:51;;;;;;;6.47;5.00;;;;;;;;;;6175833;23;20032;-82
2021/09/02 10:36:52;;;;;;;5.82;4.82;;;;;;;;;;6178107;23;19982;-81
2021/09/02 10:39:41;;;;;;;5.45;4.65;;;;;;;;;;6165376;23;20001;-82
2021/09/02 10:42:09;;;;;;;6.78;5.00;;;;;;;;;;6152631;23;20013;-81
2021/09/02 10:44:51;;;;;;;8.18;5.05;;;;;;;;;;6172731;23;20009;-82
2021/09/02 10:47:45;;;;;;;8.60;5.18;;;;;;;;;;6180243;23;20005;-82
2021/09/02 10:50:44;;;;;;;6.53;5.05;;;;;;;;;;6148298;23;20024;-82
2021/09/02 10:53:14;;;;;;;6.55;5.07;;;;;;;;;;6172971;23;20070;-82
2021/09/02 10:55:50;;;;;;;5.70;4.57;;;;;;;;;;6176629;23;20025;-82
2021/09/02 10:58:59;;;;;;;7.43;5.05;;;;;;;;;;6180866;23;20028;-84
2021/09/02 11:01:39;;;;;;;7.28;4.75;;;;;;;;;;6178051;23;20009;-82
2021/09/02 11:04:38;;;;;;;6.50;4.70;;;;;;;;;;6203227;23;20009;-83
2021/09/02 11:07:06;;;;;;;8.40;5.60;;;;;;;;;;6238235;23;20056;-82
2021/09/02 11:09:39;;;;;;;8.05;5.97;;;;;;;;;;6237548;23;20004;-81
2021/09/02 11:12:10;;;;;;;8.07;5.10;;;;;;;;;;6216176;23;20012;-82
2021/09/02 11:14:42;;;;;;;9.13;5.68;;;;;;;;;;6238607;23;19988;-81
2021/09/02 11:17:12;;;;;;;9.38;5.32;;;;;;;;;;6214330;23;20000;-81
2021/09/02 11:19:40;;;;;;;8.95;5.63;;;;;;;;;;6239545;23;19980;-81
2021/09/02 11:22:17;;;;;;;9.77;6.35;;;;;;;;;;6211318;23;19997;-82
2021/09/02 11:24:45;;;;;;;9.18;5.68;;;;;;;;;;6237672;23;19996;-82
2021/09/02 11:27:33;;;;;;;9.82;5.97;;;;;;;;;;6241252;23;19996;-83
2021/09/02 11:30:37;;;;;;;8.82;6.20;;;;;;;;;;6213503;23;20012;-82
2021/09/02 11:33:42;;;;;;;6.75;4.47;;;;;;;;;;6148478;23;20013;-81
2021/09/02 11:36:33;;;;;;;6.15;4.90;;;;;;;;;;6149895;23;19989;-82
2021/09/02 11:39:30;;;;;;;9.82;5.10;;;;;;;;;;6151848;23;20125;-82
2021/09/02 11:45:27;;;;;;;6.88;4.82;;;;;;;;;;6273107;22;20072;-81
2021/09/02 11:51:02;;;;;;;5.72;4.43;;;;;;;;;;6273410;22;19910;-82
2021/09/02 12:59:11;;;;;;;7.03;4.53;;;;;;;;;;6299730;22;20042;-81
2021/09/02 14:45:06;;;;;;;6.22;4.13;;;;;;;;;;6283768;22;20085;-82
2021/09/02 14:47:32;;;;;;;4.43;3.78;;;;;;;;;;6253815;22;20445;-83
2021/09/02 14:50:02;;;;;;;7.20;4.00;;;;;;;;;;6253650;22;20006;-84
2021/09/02 14:52:29;;;;;;;5.75;3.75;;;;;;;;;;6250460;22;20015;-84
2021/09/02 14:54:55;;;;;;;8.18;3.50;;;;;;;;;;6276645;22;19996;-84
2021/09/02 15:00:46;;;;;;;6.03;3.95;;;;;;;;;;6276428;22;20491;-87
2021/09/02 15:03:15;;;;;;;4.97;3.50;;;;;;;;;;6247545;22;20034;-90
2021/09/02 15:05:43;;;;;;;6.47;3.80;;;;;;;;;;6275018;22;20004;-89
2021/09/02 15:08:09;;;;;;;4.95;4.00;;;;;;;;;;6275607;22;19995;-89
2021/09/02 15:10:35;;;;;;;5.15;3.92;;;;;;;;;;6275210;22;20008;-88
2021/09/02 15:13:01;;;;;;;4.40;3.60;;;;;;;;;;6247607;22;20433;-88
2021/09/02 15:15:27;;;;;;;4.40;3.20;;;;;;;;;;6248415;22;20018;-89
2021/09/02 15:17:53;;;;;;;4.15;3.22;;;;;;;;;;6249304;22;20022;-89
2021/09/02 15:20:18;;;;;;;5.43;3.45;;;;;;;;;;6276971;22;19999;-90
2021/09/02 15:22:44;;;;;;;4.78;3.15;;;;;;;;;;6276491;22;19992;-89
2021/09/02 15:25:09;;;;;;;5.80;3.25;;;;;;;;;;6248533;22;20348;-91
2021/09/02 15:27:35;;;;;;;7.85;4.03;;;;;;;;;;6274031;22;19999;-91
2021/09/02 15:30:00;;;;;;;7.38;4.38;;;;;;;;;;6274062;22;20345;-91
2021/09/02 15:32:26;;;;;;;4.93;4.03;;;;;;;;;;6247738;22;20477;-89
2021/09/02 15:34:51;;;;;;;5.22;3.67;;;;;;;;;;6247909;22;20031;-90
2021/09/02 15:37:18;;;;;;;5.90;3.97;;;;;;;;;;6248037;22;20038;-89
2021/09/02 15:39:43;;;;;;;5.68;3.90;;;;;;;;;;6275277;22;20006;-90
2021/09/02 15:42:09;;;;;;;4.03;3.45;;;;;;;;;;6248133;22;20031;-89
2021/09/02 15:44:34;;;;;;;7.65;3.90;;;;;;;;;;6243076;23;20012;-90
2021/09/02 15:46:59;;;;;;;6.05;4.00;;;;;;;;;;6242657;23;20338;-90
2021/09/02 15:49:25;;;;;;;5.68;4.15;;;;;;;;;;6243282;23;20004;-90
2021/09/02 15:51:50;;;;;;;6.30;4.55;;;;;;;;;;6217893;23;20047;-90
2021/09/02 15:54:16;;;;;;;5.57;4.20;;;;;;;;;;6243300;23;20004;-90
2021/09/02 15:56:41;;;;;;;4.75;3.92;;;;;;;;;;6242656;23;20051;-90
2021/09/02 15:59:07;;;;;;;8.13;3.92;;;;;;;;;;6217751;23;20008;-90
2021/09/02 16:01:32;;;;;;;4.75;3.72;;;;;;;;;;6245262;23;20011;-90
2021/09/02 16:03:58;;;;;;;8.55;4.03;;;;;;;;;;6217891;23;20004;-89
2021/09/02 16:06:25;;;;;;;7.43;3.97;;;;;;;;;;6243362;23;19996;-90
2021/09/02 16:08:51;;;;;;;6.70;3.97;;;;;;;;;;6242420;23;20446;-85
2021/09/02 16:11:17;;;;;;;4.88;3.10;;;;;;;;;;6244162;23;19999;-90
2021/09/02 16:13:42;;;;;;;7.13;3.67;;;;;;;;;;6242955;23;20043;-90
2021/09/02 16:16:08;;;;;;;4.75;3.50;;;;;;;;;;6217860;23;20027;-89
2021/09/02 16:18:33;;;;;;;4.28;3.70;;;;;;;;;;6244652;22;19996;-89
2021/09/02 16:20:59;;;;;;;6.97;3.92;;;;;;;;;;6244801;22;19997;-90
2021/09/02 16:23:25;;;;;;;5.78;3.65;;;;;;;;;;6218251;23;20000;-89
2021/09/02 16:25:51;;;;;;;6.15;3.25;;;;;;;;;;6217521;23;19996;-89
2021/09/02 16:28:16;;;;;;;5.72;3.58;;;;;;;;;;6244819;22;20081;-89
2021/09/02 16:30:42;;;;;;;5.80;3.40;;;;;;;;;;6243420;23;20396;-89
2021/09/02 16:33:07;;;;;;;5.40;3.85;;;;;;;;;;6243678;23;20039;-89
2021/09/02 16:35:34;;;;;;;5.63;3.78;;;;;;;;;;6243447;23;20007;-89
2021/09/02 16:38:00;;;;;;;4.97;3.60;;;;;;;;;;6217971;23;20421;-89
2021/09/02 16:40:26;;;;;;;5.00;3.63;;;;;;;;;;6244574;23;19999;-89
2021/09/02 16:42:55;;;;;;;4.93;3.40;;;;;;;;;;6244548;23;20015;-89
2021/09/02 16:45:20;;;;;;;7.63;3.80;;;;;;;;;;6246405;22;20020;-89
2021/09/02 16:47:46;;;;;;;4.85;3.67;;;;;;;;;;6248940;22;20027;-89
2021/09/02 16:50:12;;;;;;;4.40;3.47;;;;;;;;;;6248593;22;20004;-90
2021/09/02 16:52:38;;;;;;;6.45;3.90;;;;;;;;;;6248414;22;20035;-89
2021/09/02 16:55:07;;;;;;;8.05;3.72;;;;;;;;;;6248424;22;20003;-89
2021/09/02 16:57:34;;;;;;;6.17;3.70;;;;;;;;;;6276133;22;20011;-90
2021/09/02 17:00:03;;;;;;;5.15;3.83;;;;;;;;;;6247478;22;19999;-89
2021/09/02 17:02:28;;;;;;;6.10;3.55;;;;;;;;;;6247870;22;20042;-90
2021/09/02 17:04:54;;;;;;;4.85;3.67;;;;;;;;;;6247836;22;20004;-89
2021/09/02 17:07:19;;;;;;;4.95;3.88;;;;;;;;;;6247729;22;20000;-90
2021/09/02 17:09:45;;;;;;;5.75;3.80;;;;;;;;;;6248398;22;20003;-89
2021/09/02 17:12:13;;;;;;;6.45;3.85;;;;;;;;;;6276063;22;20000;-90
2021/09/02 17:14:46;;;;;;;7.00;4.72;;;;;;;;;;6248091;22;20010;-90
2021/09/02 17:17:16;;;;;;;6.80;4.75;;;;;;;;;;6276214;22;20364;-90
2021/09/02 17:19:42;;;;;;;7.47;4.30;;;;;;;;;;6248230;22;20022;-89
2021/09/02 17:22:23;;;;;;;7.70;4.68;;;;;;;;;;6277710;22;20003;-89
2021/09/02 17:25:12;;;;;;;7.28;4.53;;;;;;;;;;6250558;22;20337;-88
2021/09/02 17:27:42;;;;;;;7.78;4.07;;;;;;;;;;6250735;22;20006;-88
2021/09/02 17:33:30;;;;;;;8.80;4.60;;;;;;;;;;6298176;22;20026;-85
2021/09/02 19:53:42;;;;;;;8.90;2.50;;;;;;;;;;6271429;22;20016;-81
2021/09/02 19:56:32;;;;;;;6.00;2.40;;;;;;;;;;6264344;23;20016;-82
2021/09/02 19:59:34;;;;;;;2.65;2.40;;;;;;;;;;6271977;22;20084;-81
2021/09/02 20:02:33;;;;;;;4.50;2.50;;;;;;;;;;6246835;23;20023;-82
2021/09/02 20:06:07;;;;;;;4.28;2.47;;;;;;;;;;6185911;23;19992;-82
2021/09/02 20:08:46;;;;;;;3.78;2.00;;;;;;;;;;6119526;23;20058;-81
2021/09/02 20:11:29;;;;;;;3.13;2.33;;;;;;;;;;6120122;23;20001;-82
2021/09/02 20:14:17;;;;;;;2.33;1.92;;;;;;;;;;6112141;23;19998;-82
2021/09/02 20:17:05;;;;;;;2.50;2.30;;;;;;;;;;6041428;23;20015;-82
2021/09/02 20:19:38;;;;;;;2.40;2.13;;;;;;;;;;6062637;23;19992;-82
2021/09/02 20:22:34;;;;;;;6.43;2.30;;;;;;;;;;6061359;23;20027;-81
2021/09/02 20:25:25;;;;;;;3.65;2.13;;;;;;;;;;6052802;23;20002;-82
2021/09/02 20:27:53;;;;;;;2.28;1.80;;;;;;;;;;6059742;23;20003;-81
2021/09/02 20:30:38;;;;;;;3.63;2.30;;;;;;;;;;6063527;23;20040;-82
2021/09/02 20:33:57;;;;;;;3.78;2.50;;;;;;;;;;6061773;23;20011;-82
2021/09/02 20:37:10;;;;;;;4.25;2.40;;;;;;;;;;6061888;23;20007;-82
2021/09/02 20:39:44;;;;;;;3.65;2.08;;;;;;;;;;6058344;23;20003;-81
2021/09/02 20:42:14;;;;;;;3.53;2.53;;;;;;;;;;6058923;23;20565;-82
2021/09/02 20:44:56;;;;;;;4.32;2.20;;;;;;;;;;6095390;23;20543;-81
2021/09/02 20:47:26;;;;;;;6.35;2.30;;;;;;;;;;6170549;23;20479;-81
2021/09/02 20:49:53;;;;;;;5.00;2.38;;;;;;;;;;6171542;23;19997;-80
2021/09/02 20:52:26;;;;;;;2.67;2.13;;;;;;;;;;6171233;23;20178;-81
2021/09/02 20:55:00;;;;;;;2.88;2.33;;;;;;;;;;6172099;23;20053;-81
2021/09/02 20:57:26;;;;;;;7.22;2.47;;;;;;;;;;6175763;23;20033;-81
2021/09/02 20:59:56;;;;;;;3.08;2.40;;;;;;;;;;6201474;23;20089;-81
2021/09/02 21:02:32;;;;;;;3.75;2.22;;;;;;;;;;6268944;23;19993;-82
2021/09/02 21:05:18;;;;;;;4.30;2.40;;;;;;;;;;6264827;23;20055;-80
2021/09/02 21:07:46;;;;;;;3.97;2.17;;;;;;;;;;6242265;23;20000;-81
2021/09/02 21:10:24;;;;;;;5.10;2.42;;;;;;;;;;6269938;23;20007;-83
2021/09/02 21:12:52;;;;;;;4.03;2.38;;;;;;;;;;6267822;23;20004;-81
2021/09/02 21:15:20;;;;;;;5.05;2.70;;;;;;;;;;6266664;23;20000;-81
2021/09/02 21:17:47;;;;;;;4.32;2.10;;;;;;;;;;6264982;23;20037;-81
2021/09/02 21:20:19;;;;;;;6.95;2.33;;;;;;;;;;6266762;23;20062;-81
2021/09/02 21:23:11;;;;;;;6.18;2.65;;;;;;;;;;6266835;23;20000;-81
2021/09/02 21:25:44;;;;;;;4.57;2.20;;;;;;;;;;6253326;23;19984;-81
2021/09/02 21:28:18;;;;;;;5.95;2.72;;;;;;;;;;6244827;23;19984;-82
2021/09/02 21:31:17;;;;;;;4.53;2.50;;;;;;;;;;6269307;23;20014;-82
2021/09/02 21:33:59;;;;;;;3.58;2.25;;;;;;;;;;6122513;23;19990;-83
2021/09/02 21:36:47;;;;;;;4.13;2.67;;;;;;;;;;6124776;23;20042;-84
2021/09/02 21:39:14;;;;;;;4.38;2.50;;;;;;;;;;6097967;23;20025;-81
2021/09/02 21:42:10;;;;;;;6.07;2.30;;;;;;;;;;6123466;23;19994;-82
2021/09/02 21:53:10;;;;;;;7.15;2.25;;;;;;;;;;6243905;22;20068;-83
2021/09/02 21:56:47;;;;;;;4.18;2.45;;;;;;;;;;6219248;23;20000;-82
2021/09/02 21:59:40;;;;;;;7.57;2.40;;;;;;;;;;6243396;23;20000;-83
2021/09/02 22:07:59;;;;;;;5.13;2.60;;;;;;;;;;6273903;22;20063;-83
2021/09/02 22:11:12;;;;;;;5.45;2.70;;;;;;;;;;6227392;22;20163;-84
2021/09/02 22:14:33;;;;;;;4.18;2.47;;;;;;;;;;6272652;23;20023;-84
2021/09/02 22:18:00;;;;;;;3.33;2.40;;;;;;;;;;5990615;23;20019;-83
2021/09/02 22:21:32;;;;;;;3.88;2.65;;;;;;;;;;5981465;24;20013;-84
2021/09/02 22:24:10;;;;;;;4.07;2.38;;;;;;;;;;5981456;24;20016;-83
2021/09/02 22:27:09;;;;;;;6.68;2.67;;;;;;;;;;5979964;24;20008;-83
2021/09/02 22:30:24;;;;;;;4.93;2.47;;;;;;;;;;5981527;24;20005;-84
2021/09/02 22:33:55;;;;;;;4.57;2.75;;;;;;;;;;5982057;24;20112;-84
2021/09/02 22:39:59;;;;;;;4.75;2.92;;;;;;;;;;5925829;24;20028;-83
2021/09/02 22:49:31;;;;;;;6.22;2.72;;;;;;;;;;5926729;24;20005;-84
2021/09/02 22:52:30;;;;;;;5.05;2.72;;;;;;;;;;5954229;23;20008;-82
2021/09/02 22:55:45;;;;;;;5.25;2.70;;;;;;;;;;6080284;23;20062;-83
2021/09/02 23:01:20;;;;;;;4.55;3.03;;;;;;;;;;6182165;23;20036;-83
2021/09/02 23:03:48;;;;;;;6.05;2.55;;;;;;;;;;6154957;23;19998;-81
2021/09/02 23:06:32;;;;;;;4.43;3.30;;;;;;;;;;6155487;23;20065;-83
2021/09/02 23:09:44;;;;;;;5.55;3.08;;;;;;;;;;6181103;23;20018;-83
2021/09/02 23:12:35;;;;;;;4.57;2.97;;;;;;;;;;6216872;23;19991;-82
2021/09/02 23:15:43;;;;;;;4.72;3.08;;;;;;;;;;6242060;23;20023;-83
2021/09/02 23:18:17;;;;;;;3.38;2.85;;;;;;;;;;6239152;23;20004;-82
2021/09/02 23:21:05;;;;;;;4.65;3.38;;;;;;;;;;6243144;23;20012;-83
2021/09/02 23:23:38;;;;;;;4.70;3.33;;;;;;;;;;6242559;23;19992;-83
2021/09/02 23:27:01;;;;;;;8.05;3.47;;;;;;;;;;6237976;23;19984;-84
2021/09/02 23:29:39;;;;;;;6.13;4.15;;;;;;;;;;6089932;23;20002;-84
2021/09/02 23:32:33;;;;;;;6.30;3.33;;;;;;;;;;6069590;23;20014;-83
2021/09/02 23:35:18;;;;;;;5.53;3.20;;;;;;;;;;6035978;23;20012;-83
2021/09/02 23:37:47;;;;;;;6.80;3.05;;;;;;;;;;6036686;23;20036;-83
2021/09/02 23:40:23;;;;;;;4.57;3.15;;;;;;;;;;5966077;23;20004;-83
2021/09/02 23:43:08;;;;;;;3.30;2.67;;;;;;;;;;6035901;23;20070;-83
2021/09/02 23:46:02;;;;;;;5.50;3.15;;;;;;;;;;6036216;23;20011;-83
2021/09/02 23:48:31;;;;;;;3.65;2.88;;;;;;;;;;6036530;23;20634;-83
2021/09/02 23:51:09;;;;;;;7.47;3.17;;;;;;;;;;6036701;23;19988;-83
2021/09/02 23:53:41;;;;;;;5.32;2.85;;;;;;;;;;6036999;23;20000;-84
2021/09/02 23:56:41;;;;;;;5.88;3.10;;;;;;;;;;6037041;23;19992;-83
2021/09/02 23:59:27;;;;;;;4.10;2.85;;;;;;;;;;6011719;23;20008;-83
